Time;durP1;ratioP1;P1;durP2;ratioP2;P2;SDS_P1;SDS_P2;PMS_P1;PMS_P2;Temp;Humidity;BMP_temperature;BMP_pressure;BME280_temperature;BME280_humidity;BME280_pressure;Samples;Min_cycle;Max_cycle;Signal;HPM_P1;HPM_P2
2023/12/14 00:02:15;;;;;;;18.45;9.10;;;6.00;99.90;;;;;;6178533;23;20020;-66
2023/12/14 00:05:01;;;;;;;17.05;10.80;;;6.00;99.90;;;;;;6178329;23;20005;-65
2023/12/14 00:07:47;;;;;;;17.02;10.32;;;5.90;99.90;;;;;;6179137;23;20015;-66
2023/12/14 00:10:32;;;;;;;17.52;10.52;;;6.00;99.90;;;;;;6178584;23;20362;-65
2023/12/14 00:13:18;;;;;;;15.27;9.20;;;5.90;99.90;;;;;;6179530;23;20032;-65
2023/12/14 00:16:05;;;;;;;16.35;9.80;;;5.90;99.90;;;;;;6178691;23;20020;-65
2023/12/14 00:18:51;;;;;;;17.88;9.73;;;5.90;99.90;;;;;;6180746;23;20012;-65
2023/12/14 00:21:37;;;;;;;16.38;11.00;;;5.90;99.90;;;;;;6179619;23;20009;-65
2023/12/14 00:24:23;;;;;;;16.77;10.35;;;5.80;99.90;;;;;;6180133;23;20432;-65
2023/12/14 00:27:09;;;;;;;18.92;10.60;;;5.80;99.90;;;;;;6179334;23;20063;-65
2023/12/14 00:29:55;;;;;;;19.10;11.30;;;5.80;99.90;;;;;;6177680;23;20021;-65
2023/12/14 00:32:41;;;;;;;17.00;9.68;;;5.80;99.90;;;;;;6178636;23;20020;-64
2023/12/14 00:35:27;;;;;;;17.13;9.55;;;5.80;99.90;;;;;;6178981;23;20017;-65
2023/12/14 00:38:13;;;;;;;18.13;10.27;;;5.80;99.90;;;;;;6178772;23;20009;-64
2023/12/14 00:40:58;;;;;;;21.63;11.98;;;5.80;99.90;;;;;;6179175;23;20065;-64
2023/12/14 00:43:45;;;;;;;18.00;10.02;;;5.70;99.90;;;;;;6179198;23;20013;-64
2023/12/14 00:46:31;;;;;;;16.13;10.35;;;5.70;99.90;;;;;;6179601;23;20013;-64
2023/12/14 00:49:19;;;;;;;17.33;9.65;;;5.70;99.90;;;;;;6179077;23;20320;-64
2023/12/14 00:52:05;;;;;;;13.85;9.50;;;5.70;99.90;;;;;;6179125;23;20013;-64
2023/12/14 00:54:51;;;;;;;15.90;8.77;;;5.70;99.90;;;;;;6179358;23;20009;-64
2023/12/14 00:57:37;;;;;;;16.90;10.20;;;5.60;99.90;;;;;;6178640;23;20013;-64
2023/12/14 01:00:23;;;;;;;19.05;10.45;;;5.60;99.90;;;;;;6179227;23;20009;-65
2023/12/14 01:03:09;;;;;;;16.42;9.43;;;5.50;99.90;;;;;;6177558;23;20343;-65
2023/12/14 01:05:55;;;;;;;15.80;9.50;;;5.50;99.90;;;;;;6178311;23;20013;-65
2023/12/14 01:08:41;;;;;;;16.02;9.10;;;5.50;99.90;;;;;;6179922;23;20083;-65
2023/12/14 01:11:27;;;;;;;17.27;10.05;;;5.50;99.90;;;;;;6177507;23;20016;-64
2023/12/14 01:14:12;;;;;;;19.60;10.90;;;5.60;99.90;;;;;;6178690;23;20025;-64
2023/12/14 01:16:58;;;;;;;18.05;8.75;;;5.60;99.90;;;;;;6178774;23;20347;-65
2023/12/14 01:19:44;;;;;;;15.68;8.65;;;5.60;99.90;;;;;;6179784;23;20013;-64
2023/12/14 01:22:30;;;;;;;19.05;10.15;;;5.50;99.90;;;;;;6179395;23;20013;-65
2023/12/14 01:25:16;;;;;;;17.08;9.60;;;5.50;99.90;;;;;;6178170;23;20005;-64
2023/12/14 01:28:02;;;;;;;18.08;8.88;;;5.50;99.90;;;;;;6179368;23;20064;-65
2023/12/14 01:30:48;;;;;;;15.88;9.45;;;5.50;99.90;;;;;;6178896;23;20351;-65
2023/12/14 01:33:34;;;;;;;17.67;10.23;;;5.50;99.90;;;;;;6179123;23;20009;-65
2023/12/14 01:36:21;;;;;;;14.55;8.77;;;5.50;99.90;;;;;;6178249;23;20013;-65
2023/12/14 01:39:07;;;;;;;14.95;8.93;;;5.50;99.90;;;;;;6179315;23;20304;-65
2023/12/14 01:41:53;;;;;;;16.70;8.75;;;5.50;99.90;;;;;;6179316;23;20013;-65
2023/12/14 01:44:39;;;;;;;15.00;8.48;;;5.40;99.90;;;;;;6179747;23;20131;-65
2023/12/14 01:47:25;;;;;;;15.00;9.30;;;5.40;99.90;;;;;;6178891;23;20021;-66
2023/12/14 01:50:11;;;;;;;14.55;9.07;;;5.40;99.90;;;;;;6180628;23;20017;-66
2023/12/14 01:52:57;;;;;;;13.25;7.38;;;5.40;99.90;;;;;;6177737;23;20011;-66
2023/12/14 01:55:43;;;;;;;13.55;7.82;;;5.40;99.90;;;;;;6180874;23;20071;-65
2023/12/14 01:58:29;;;;;;;15.52;8.65;;;5.30;99.90;;;;;;6178364;23;20016;-65
2023/12/14 02:01:36;;;;;;;23.40;10.88;;;5.40;99.90;;;;;;6178275;23;20009;-65
2023/12/14 02:04:24;;;;;;;13.32;8.43;;;5.50;99.90;;;;;;6178973;23;20395;-65
2023/12/14 02:07:10;;;;;;;15.57;7.85;;;5.50;99.90;;;;;;6178963;23;20005;-65
2023/12/14 02:09:56;;;;;;;11.52;7.18;;;5.40;99.90;;;;;;6178998;23;20021;-65
2023/12/14 02:12:42;;;;;;;11.25;6.93;;;5.40;99.90;;;;;;6179166;23;20025;-65
2023/12/14 02:15:29;;;;;;;12.23;7.20;;;5.30;99.90;;;;;;6179072;23;20020;-66
2023/12/14 02:18:15;;;;;;;11.10;6.97;;;5.30;99.90;;;;;;6179621;23;20009;-66
2023/12/14 02:21:01;;;;;;;12.60;7.35;;;5.30;99.90;;;;;;6180164;23;20016;-66
2023/12/14 02:23:47;;;;;;;13.40;6.72;;;5.30;99.90;;;;;;6182218;23;20088;-66
2023/12/14 02:26:33;;;;;;;11.50;7.18;;;5.30;99.90;;;;;;6181526;23;20112;-66
2023/12/14 02:29:18;;;;;;;9.43;5.85;;;5.30;99.90;;;;;;6179809;23;20009;-66
2023/12/14 02:32:05;;;;;;;8.35;5.43;;;5.30;99.90;;;;;;6181244;23;20040;-66
2023/12/14 02:34:51;;;;;;;9.77;5.65;;;5.20;99.90;;;;;;6181172;23;20020;-65
2023/12/14 02:37:37;;;;;;;11.27;6.40;;;5.20;99.90;;;;;;6180773;23;20196;-66
2023/12/14 02:40:23;;;;;;;12.90;6.30;;;5.20;99.90;;;;;;6182095;23;20013;-66
2023/12/14 02:43:09;;;;;;;11.38;6.40;;;5.10;99.90;;;;;;6180535;23;20435;-63
2023/12/14 02:46:01;;;;;;;10.98;7.25;;;5.10;99.90;;;;;;6180651;23;20017;-62
2023/12/14 02:48:47;;;;;;;9.38;6.05;;;5.10;99.90;;;;;;6180551;23;20387;-63
2023/12/14 02:51:32;;;;;;;11.50;6.60;;;5.20;99.90;;;;;;6180881;23;20021;-62
2023/12/14 02:54:18;;;;;;;11.85;7.43;;;5.20;99.90;;;;;;6181292;23;20396;-63
2023/12/14 02:57:04;;;;;;;14.02;7.95;;;5.10;99.90;;;;;;6180861;23;20463;-63
2023/12/14 02:59:50;;;;;;;13.82;8.15;;;5.10;99.90;;;;;;6180923;23;20013;-63
2023/12/14 03:02:37;;;;;;;12.82;7.85;;;5.10;99.90;;;;;;6180090;23;20016;-63
2023/12/14 03:05:22;;;;;;;10.90;7.60;;;5.10;99.90;;;;;;6180573;23;20024;-63
2023/12/14 03:08:08;;;;;;;15.15;7.68;;;5.10;99.90;;;;;;6180753;23;20419;-64
2023/12/14 03:10:54;;;;;;;12.13;7.47;;;5.10;99.90;;;;;;6180447;23;20521;-64
2023/12/14 03:13:40;;;;;;;12.43;8.63;;;5.10;99.90;;;;;;6179735;23;20021;-63
2023/12/14 03:16:26;;;;;;;12.73;8.18;;;5.10;99.90;;;;;;6180557;23;20300;-64
2023/12/14 03:19:12;;;;;;;18.75;8.20;;;5.10;99.90;;;;;;6179604;23;20013;-64
2023/12/14 03:21:58;;;;;;;13.32;7.63;;;5.10;99.90;;;;;;6180116;23;20028;-63
2023/12/14 03:24:44;;;;;;;14.13;7.80;;;5.20;99.90;;;;;;6181337;23;20013;-64
2023/12/14 03:27:30;;;;;;;13.77;7.82;;;5.20;99.90;;;;;;6180360;23;20196;-63
2023/12/14 03:30:16;;;;;;;12.73;7.63;;;5.20;99.90;;;;;;6180292;23;20073;-64
2023/12/14 03:33:01;;;;;;;14.05;8.07;;;5.20;99.90;;;;;;6180267;23;20031;-64
2023/12/14 03:35:47;;;;;;;13.20;7.75;;;5.20;99.90;;;;;;6180961;23;20020;-63
2023/12/14 03:38:33;;;;;;;14.85;8.00;;;5.20;99.90;;;;;;6181428;23;20013;-64
2023/12/14 03:41:19;;;;;;;10.65;7.80;;;5.20;99.90;;;;;;6179709;23;20415;-63
2023/12/14 03:44:06;;;;;;;15.95;8.75;;;5.20;99.90;;;;;;6178475;23;20051;-63
2023/12/14 03:46:54;;;;;;;13.30;7.32;;;5.20;99.90;;;;;;6180255;23;20534;-63
2023/12/14 03:49:39;;;;;;;13.30;7.32;;;5.10;99.90;;;;;;6179511;23;20025;-63
2023/12/14 03:52:27;;;;;;;14.40;8.55;;;5.20;99.90;;;;;;6180252;23;20462;-63
2023/12/14 03:55:15;;;;;;;16.73;8.52;;;5.10;99.90;;;;;;6179933;23;20048;-62
2023/12/14 03:58:01;;;;;;;13.25;7.75;;;5.00;99.90;;;;;;6179750;23;20056;-62
2023/12/14 04:00:47;;;;;;;16.73;8.45;;;5.00;99.90;;;;;;6179875;23;20097;-64
2023/12/14 04:03:33;;;;;;;14.32;7.22;;;5.00;99.90;;;;;;6179969;23;20013;-63
2023/12/14 04:06:19;;;;;;;13.10;8.32;;;5.10;99.90;;;;;;6180090;23;20005;-63
2023/12/14 04:09:05;;;;;;;14.75;7.30;;;5.10;99.90;;;;;;6181561;23;20009;-63
2023/12/14 04:11:51;;;;;;;15.10;8.57;;;5.20;99.90;;;;;;6178973;23;20017;-63
2023/12/14 04:14:37;;;;;;;13.10;7.10;;;5.10;99.90;;;;;;6180018;23;20021;-63
2023/12/14 04:17:24;;;;;;;11.90;6.45;;;5.10;99.90;;;;;;6180115;23;20019;-62
2023/12/14 04:20:10;;;;;;;14.43;7.78;;;5.10;99.90;;;;;;6179776;23;20083;-62
2023/12/14 04:22:56;;;;;;;12.05;6.45;;;5.20;99.90;;;;;;6180142;23;20020;-63
2023/12/14 04:25:42;;;;;;;9.93;6.05;;;5.10;99.90;;;;;;6178601;23;20055;-63
2023/12/14 04:28:28;;;;;;;12.45;6.30;;;5.10;99.90;;;;;;6180251;23;20012;-63
2023/12/14 04:31:14;;;;;;;12.05;6.25;;;5.10;99.90;;;;;;6179487;23;20056;-63
2023/12/14 04:34:00;;;;;;;9.77;6.55;;;5.10;99.90;;;;;;6181026;23;20458;-63
2023/12/14 04:36:46;;;;;;;10.23;5.93;;;5.10;99.90;;;;;;6179963;23;20199;-64
2023/12/14 04:39:32;;;;;;;10.48;5.63;;;5.20;99.90;;;;;;6180344;23;20013;-64
2023/12/14 04:42:18;;;;;;;12.50;6.60;;;5.10;99.90;;;;;;6180538;23;20075;-64
2023/12/14 04:45:04;;;;;;;11.70;5.93;;;5.10;99.90;;;;;;6180425;23;20016;-64
2023/12/14 04:47:50;;;;;;;14.13;6.60;;;5.10;99.90;;;;;;6179517;23;20013;-62
2023/12/14 04:50:36;;;;;;;11.30;6.70;;;5.00;99.90;;;;;;6179503;23;20017;-62
2023/12/14 04:53:22;;;;;;;13.80;7.20;;;5.10;99.90;;;;;;6178306;23;20013;-62
2023/12/14 04:56:11;;;;;;;10.48;6.78;;;5.10;99.90;;;;;;6179771;23;20013;-62
2023/12/14 04:58:58;;;;;;;12.40;6.38;;;5.10;99.90;;;;;;6179459;23;20387;-63
2023/12/14 05:01:44;;;;;;;11.48;6.47;;;5.10;99.90;;;;;;6179334;23;20024;-62
2023/12/14 05:04:30;;;;;;;10.77;5.95;;;5.10;99.90;;;;;;6179384;23;20013;-62
2023/12/14 05:07:16;;;;;;;10.15;7.03;;;5.10;99.90;;;;;;6177023;23;20019;-62
2023/12/14 05:10:02;;;;;;;8.82;6.15;;;5.10;99.90;;;;;;6178964;23;20607;-63
2023/12/14 05:12:48;;;;;;;11.73;7.47;;;5.20;99.90;;;;;;6178767;23;20091;-62
2023/12/14 05:15:34;;;;;;;10.32;6.93;;;5.20;99.90;;;;;;6180578;23;20017;-62
2023/12/14 05:18:20;;;;;;;12.82;6.68;;;5.20;99.90;;;;;;6179803;23;20012;-63
2023/12/14 05:21:06;;;;;;;9.32;6.45;;;5.20;99.90;;;;;;6178219;23;20009;-63
2023/12/14 05:23:53;;;;;;;11.82;6.32;;;5.20;99.90;;;;;;6179389;23;20507;-62
2023/12/14 05:26:39;;;;;;;12.63;7.88;;;5.20;99.90;;;;;;6179535;23;20347;-62
2023/12/14 05:29:25;;;;;;;9.98;6.68;;;5.20;99.90;;;;;;6179199;23;20067;-62
2023/12/14 05:32:11;;;;;;;11.43;6.53;;;5.20;99.90;;;;;;6179885;23;20067;-62
2023/12/14 05:34:57;;;;;;;12.32;7.07;;;5.30;99.90;;;;;;6179055;23;20024;-62
2023/12/14 05:37:43;;;;;;;9.60;6.80;;;5.30;99.90;;;;;;6179540;23;20013;-63
2023/12/14 05:40:28;;;;;;;10.93;7.10;;;5.30;99.90;;;;;;6179481;23;20091;-62
2023/12/14 05:43:14;;;;;;;10.38;6.38;;;5.30;99.90;;;;;;6180202;23;20009;-62
2023/12/14 05:46:00;;;;;;;9.20;6.05;;;5.30;99.90;;;;;;6180335;23;20017;-63
2023/12/14 05:48:46;;;;;;;12.00;6.72;;;5.30;99.90;;;;;;6179633;23;20502;-63
2023/12/14 05:51:33;;;;;;;10.13;6.53;;;5.30;99.90;;;;;;6178862;23;20025;-61
2023/12/14 05:54:18;;;;;;;12.27;6.10;;;5.30;99.90;;;;;;6180179;23;20011;-62
2023/12/14 05:57:05;;;;;;;12.13;7.00;;;5.20;99.90;;;;;;6179463;23;20017;-62
2023/12/14 05:59:51;;;;;;;11.68;7.03;;;5.20;99.90;;;;;;6179902;23;20083;-62
2023/12/14 06:02:38;;;;;;;10.52;5.93;;;5.20;99.90;;;;;;6179277;23;20088;-62
2023/12/14 06:05:23;;;;;;;10.05;6.30;;;5.20;99.90;;;;;;6179858;23;20013;-62
2023/12/14 06:08:09;;;;;;;8.45;6.10;;;5.20;99.90;;;;;;6179685;23;20335;-62
2023/12/14 06:10:55;;;;;;;11.55;7.38;;;5.30;99.90;;;;;;6179868;23;20021;-62
2023/12/14 06:13:41;;;;;;;14.75;7.30;;;5.30;99.90;;;;;;6179302;23;20017;-63
2023/12/14 06:16:27;;;;;;;8.38;6.05;;;5.30;99.90;;;;;;6178916;23;20017;-62
2023/12/14 06:19:13;;;;;;;8.77;5.95;;;5.30;99.90;;;;;;6179728;23;20188;-62
2023/12/14 06:21:59;;;;;;;8.40;6.07;;;5.30;99.90;;;;;;6179734;23;20357;-62
2023/12/14 06:24:45;;;;;;;9.13;5.65;;;5.30;99.90;;;;;;6179423;23;20355;-62
2023/12/14 06:27:31;;;;;;;8.60;5.80;;;5.30;99.90;;;;;;6180028;23;20009;-62
2023/12/14 06:30:17;;;;;;;7.20;5.05;;;5.30;99.90;;;;;;6179285;23;20455;-62
2023/12/14 06:33:03;;;;;;;10.68;6.72;;;5.20;99.90;;;;;;6179281;23;20016;-62
2023/12/14 06:35:49;;;;;;;9.25;6.32;;;5.20;99.90;;;;;;6179861;23;20019;-63
2023/12/14 06:38:39;;;;;;;8.68;6.10;;;5.30;99.90;;;;;;6179701;23;20013;-62
2023/12/14 06:41:26;;;;;;;10.85;6.72;;;5.30;99.90;;;;;;6179318;23;20379;-63
2023/12/14 06:44:12;;;;;;;8.65;5.70;;;5.30;99.90;;;;;;6178585;23;20272;-63
2023/12/14 06:46:58;;;;;;;8.38;5.63;;;5.30;99.90;;;;;;6179931;23;20040;-61
2023/12/14 06:49:44;;;;;;;9.35;6.45;;;5.30;99.90;;;;;;6179543;23;20025;-61
2023/12/14 06:52:30;;;;;;;9.95;6.45;;;5.30;99.90;;;;;;6178296;23;20095;-62
2023/12/14 06:55:16;;;;;;;7.57;5.43;;;5.30;99.90;;;;;;6180048;23;20028;-62
2023/12/14 06:58:01;;;;;;;9.63;6.03;;;5.40;99.90;;;;;;6179950;23;20336;-61
2023/12/14 07:00:47;;;;;;;11.35;7.70;;;5.40;99.90;;;;;;6179474;23;20380;-62
2023/12/14 07:03:33;;;;;;;10.30;6.38;;;5.40;99.90;;;;;;6177536;23;20506;-62
2023/12/14 07:06:21;;;;;;;9.90;6.72;;;5.50;99.90;;;;;;6180020;23;20019;-61
2023/12/14 07:09:06;;;;;;;10.02;7.03;;;5.50;99.90;;;;;;6180943;23;20009;-61
2023/12/14 07:11:53;;;;;;;9.93;7.28;;;5.40;99.90;;;;;;6180630;23;20025;-61
2023/12/14 07:14:39;;;;;;;10.10;6.90;;;5.50;99.90;;;;;;6179764;23;20005;-61
2023/12/14 07:17:25;;;;;;;9.98;7.97;;;5.50;99.90;;;;;;6180802;23;20047;-62
2023/12/14 07:20:11;;;;;;;9.30;6.47;;;5.40;99.90;;;;;;6181111;23;20463;-62
2023/12/14 07:22:57;;;;;;;11.95;8.20;;;5.40;99.90;;;;;;6180862;23;20047;-61
2023/12/14 07:25:43;;;;;;;10.32;7.25;;;5.40;99.90;;;;;;6181468;23;20006;-61
2023/12/14 07:28:29;;;;;;;11.52;7.97;;;5.40;99.90;;;;;;6180990;23;20017;-61
2023/12/14 07:31:15;;;;;;;11.88;7.97;;;5.40;99.90;;;;;;6181181;23;20024;-62
2023/12/14 07:34:01;;;;;;;12.40;7.07;;;5.40;99.90;;;;;;6180090;23;20101;-62
2023/12/14 07:36:47;;;;;;;11.77;7.45;;;5.40;99.90;;;;;;6181608;23;20047;-61
2023/12/14 07:39:33;;;;;;;12.15;7.47;;;5.50;99.90;;;;;;6180991;23;20013;-61
2023/12/14 07:42:19;;;;;;;10.82;7.30;;;5.50;99.90;;;;;;6181373;23;20020;-61
2023/12/14 07:45:08;;;;;;;11.48;7.45;;;5.40;99.90;;;;;;6180702;23;20048;-62
2023/12/14 07:47:54;;;;;;;11.18;7.47;;;5.50;99.90;;;;;;6180896;23;20440;-62
2023/12/14 07:50:40;;;;;;;12.73;8.95;;;5.50;99.90;;;;;;6180667;23;20403;-62
2023/12/14 07:53:26;;;;;;;10.95;7.88;;;5.50;99.90;;;;;;6179466;23;20020;-62
2023/12/14 07:56:12;;;;;;;15.77;9.70;;;5.50;99.90;;;;;;6180313;23;20256;-62
2023/12/14 07:58:58;;;;;;;13.93;8.63;;;5.60;99.90;;;;;;6181517;23;20466;-62
2023/12/14 08:01:44;;;;;;;12.45;8.20;;;5.50;99.90;;;;;;6181380;23;20459;-62
2023/12/14 08:04:30;;;;;;;14.07;8.90;;;5.50;99.90;;;;;;6179897;23;20012;-62
2023/12/14 08:07:16;;;;;;;13.00;8.80;;;5.50;99.90;;;;;;6178979;23;20013;-62
2023/12/14 08:10:03;;;;;;;12.05;8.77;;;5.50;99.90;;;;;;6181205;23;20052;-62
2023/12/14 08:12:49;;;;;;;13.90;9.00;;;5.50;99.90;;;;;;6179684;23;20373;-62
2023/12/14 08:15:35;;;;;;;14.90;9.55;;;5.60;99.90;;;;;;6180919;23;20036;-62
2023/12/14 08:18:20;;;;;;;17.27;10.52;;;5.60;99.90;;;;;;6179967;23;20096;-62
2023/12/14 08:21:06;;;;;;;15.82;10.40;;;5.60;99.90;;;;;;6178396;23;20015;-62
2023/12/14 08:23:52;;;;;;;15.23;8.98;;;5.50;99.90;;;;;;6180260;23;20446;-71
2023/12/14 08:26:38;;;;;;;14.88;9.93;;;5.50;99.90;;;;;;6180291;23;20009;-73
2023/12/14 08:29:24;;;;;;;18.10;8.98;;;5.40;99.90;;;;;;6180706;23;20443;-73
2023/12/14 08:32:10;;;;;;;14.32;9.95;;;5.40;99.90;;;;;;6180845;23;20427;-71
2023/12/14 08:34:56;;;;;;;15.27;10.35;;;5.30;99.90;;;;;;6179572;23;20348;-71
2023/12/14 08:37:43;;;;;;;15.80;10.20;;;5.40;99.90;;;;;;6179163;23;20383;-70
2023/12/14 08:40:29;;;;;;;17.55;10.82;;;5.40;99.90;;;;;;6177679;23;20013;-71
2023/12/14 08:43:15;;;;;;;18.08;10.90;;;5.40;99.90;;;;;;6178729;23;20095;-72
2023/12/14 08:46:01;;;;;;;15.10;10.57;;;5.50;99.90;;;;;;6178459;23;20331;-72
2023/12/14 08:48:47;;;;;;;14.48;9.75;;;5.50;99.90;;;;;;6178381;23;20017;-72
2023/12/14 08:51:33;;;;;;;15.85;10.18;;;5.50;99.90;;;;;;6180277;23;20013;-67
2023/12/14 08:54:19;;;;;;;16.83;10.98;;;5.50;99.90;;;;;;6178947;23;20062;-67
2023/12/14 08:57:05;;;;;;;13.57;9.25;;;5.50;99.90;;;;;;6158636;23;20013;-66
2023/12/14 08:59:51;;;;;;;14.93;9.88;;;5.50;99.90;;;;;;6178814;23;20039;-66
2023/12/14 09:02:37;;;;;;;14.75;10.20;;;5.60;99.90;;;;;;6180017;23;20013;-66
2023/12/14 09:05:24;;;;;;;14.50;10.23;;;5.60;99.90;;;;;;6178544;23;20100;-66
2023/12/14 09:08:10;;;;;;;14.25;9.73;;;5.60;99.90;;;;;;6179992;23;20017;-66
2023/12/14 09:10:56;;;;;;;16.10;10.77;;;5.60;99.90;;;;;;6179182;23;20087;-66
2023/12/14 09:13:42;;;;;;;13.73;9.60;;;5.70;99.90;;;;;;6179247;23;20281;-66
2023/12/14 09:16:28;;;;;;;13.10;9.07;;;5.70;99.90;;;;;;6179555;23;20414;-67
2023/12/14 09:19:14;;;;;;;13.10;8.88;;;5.70;99.90;;;;;;6179405;23;20028;-67
2023/12/14 09:21:59;;;;;;;14.07;9.93;;;5.70;99.90;;;;;;6178777;23;20013;-67
2023/12/14 09:24:45;;;;;;;13.98;8.95;;;5.70;99.90;;;;;;6180162;23;20017;-67
2023/12/14 09:27:31;;;;;;;12.93;8.32;;;5.70;99.90;;;;;;6179362;23;20020;-67
2023/12/14 09:30:17;;;;;;;14.35;8.57;;;5.60;99.90;;;;;;6179725;23;20023;-67
2023/12/14 09:33:03;;;;;;;13.43;8.40;;;5.60;99.90;;;;;;6176076;23;20009;-67
2023/12/14 09:35:49;;;;;;;15.13;9.02;;;5.60;99.90;;;;;;6180124;23;20013;-67
2023/12/14 09:38:36;;;;;;;13.65;9.10;;;5.60;99.90;;;;;;6180023;23;20064;-67
2023/12/14 09:41:22;;;;;;;11.68;8.52;;;5.60;99.90;;;;;;6179072;23;20021;-67
2023/12/14 09:44:08;;;;;;;14.18;9.00;;;5.60;99.90;;;;;;6178414;23;20009;-67
2023/12/14 09:46:55;;;;;;;11.43;7.22;;;5.60;99.90;;;;;;6179484;23;20141;-67
2023/12/14 09:49:42;;;;;;;12.55;7.82;;;5.60;99.90;;;;;;6178242;23;20013;-67
2023/12/14 09:52:29;;;;;;;14.27;9.85;;;5.60;99.90;;;;;;6177992;23;20013;-67
2023/12/14 09:55:18;;;;;;;15.43;9.68;;;5.60;99.90;;;;;;6179424;23;20439;-67
2023/12/14 09:58:06;;;;;;;12.55;8.57;;;5.60;99.90;;;;;;6177785;23;20017;-68
2023/12/14 10:00:52;;;;;;;12.63;8.20;;;5.70;99.90;;;;;;6180304;23;20433;-68
2023/12/14 10:03:38;;;;;;;11.80;7.40;;;5.60;99.90;;;;;;6178554;23;20859;-65
2023/12/14 10:06:24;;;;;;;11.13;7.60;;;5.70;99.90;;;;;;6176363;23;20017;-65
2023/12/14 10:09:13;;;;;;;11.93;7.22;;;5.70;99.90;;;;;;6179606;23;20095;-65
2023/12/14 10:12:06;;;;;;;13.85;8.52;;;5.70;99.90;;;;;;6178734;23;20019;-68
2023/12/14 10:15:05;;;;;;;10.02;7.05;;;5.70;99.90;;;;;;6177631;23;20013;-67
2023/12/14 10:17:54;;;;;;;9.45;6.85;;;5.70;99.90;;;;;;6177538;23;20479;-67
2023/12/14 10:20:40;;;;;;;13.13;8.15;;;5.70;99.90;;;;;;6179238;23;20090;-67
2023/12/14 10:23:27;;;;;;;12.00;7.03;;;5.70;99.90;;;;;;6178118;23;20758;-66
2023/12/14 10:26:15;;;;;;;13.45;9.13;;;5.80;99.90;;;;;;6179304;23;20387;-66
2023/12/14 10:29:04;;;;;;;14.95;9.15;;;5.80;99.90;;;;;;6178694;23;20013;-67
2023/12/14 10:31:50;;;;;;;12.93;9.15;;;5.80;99.90;;;;;;6178097;23;20107;-66
2023/12/14 10:34:36;;;;;;;13.50;8.68;;;5.80;99.90;;;;;;6179561;23;20034;-66
2023/12/14 10:37:25;;;;;;;14.10;8.93;;;5.80;99.90;;;;;;6177322;23;20387;-67
2023/12/14 10:40:14;;;;;;;12.20;8.10;;;5.80;99.90;;;;;;6180111;23;20028;-67
2023/12/14 10:43:00;;;;;;;13.73;8.77;;;5.80;99.90;;;;;;6181373;23;20009;-67
2023/12/14 10:45:51;;;;;;;14.32;9.85;;;5.90;99.90;;;;;;6180740;23;20021;-67
2023/12/14 10:48:39;;;;;;;15.18;8.40;;;6.00;99.90;;;;;;6181130;23;20506;-67
2023/12/14 10:51:27;;;;;;;17.25;9.10;;;6.00;99.90;;;;;;6181097;23;20021;-67
2023/12/14 10:54:15;;;;;;;13.65;8.90;;;5.90;99.90;;;;;;6180207;23;20020;-67
2023/12/14 10:57:01;;;;;;;13.98;8.90;;;6.00;99.90;;;;;;6180198;23;20009;-67
2023/12/14 10:59:49;;;;;;;14.60;9.40;;;6.00;99.90;;;;;;6180115;23;20020;-68
2023/12/14 11:02:45;;;;;;;12.77;9.23;;;6.00;99.90;;;;;;6176751;23;20048;-68
2023/12/14 11:05:34;;;;;;;15.50;10.02;;;6.00;99.90;;;;;;6179545;23;20451;-67
2023/12/14 11:08:19;;;;;;;15.85;9.75;;;6.00;99.90;;;;;;6179693;23;20036;-66
2023/12/14 11:11:10;;;;;;;13.52;8.65;;;6.00;99.90;;;;;;6180116;23;20024;-65
2023/12/14 11:13:56;;;;;;;14.77;9.40;;;6.00;99.90;;;;;;6181380;23;20048;-64
2023/12/14 11:16:46;;;;;;;15.95;9.90;;;6.10;99.90;;;;;;6179536;23;20029;-66
2023/12/14 11:19:32;;;;;;;13.63;8.23;;;6.10;99.90;;;;;;6179007;23;20044;-65
2023/12/14 11:22:27;;;;;;;14.75;8.93;;;6.10;99.90;;;;;;6180904;23;20348;-65
2023/12/14 11:25:13;;;;;;;13.23;9.60;;;6.10;99.90;;;;;;6181512;23;20367;-65
2023/12/14 11:28:04;;;;;;;16.10;10.85;;;6.10;99.90;;;;;;6181004;23;20024;-65
2023/12/14 11:30:51;;;;;;;13.45;9.45;;;6.10;99.90;;;;;;6178617;23;20111;-66
2023/12/14 11:33:36;;;;;;;16.10;10.35;;;6.00;99.90;;;;;;6181264;23;20016;-66
2023/12/14 11:36:22;;;;;;;14.90;8.88;;;6.00;99.90;;;;;;6179375;23;20139;-65
2023/12/14 11:39:11;;;;;;;16.65;10.27;;;6.10;99.90;;;;;;6180030;23;20120;-65
2023/12/14 11:42:04;;;;;;;14.88;10.13;;;6.10;99.90;;;;;;6181377;23;20005;-65
2023/12/14 11:44:50;;;;;;;13.98;9.93;;;6.10;99.90;;;;;;6180170;23;20019;-66
2023/12/14 11:47:36;;;;;;;14.45;9.35;;;6.20;99.90;;;;;;6179675;23;20005;-65
2023/12/14 11:50:23;;;;;;;12.88;9.05;;;6.20;99.90;;;;;;6180749;23;20025;-65
2023/12/14 11:53:09;;;;;;;17.00;9.40;;;6.10;99.90;;;;;;6180255;23;20423;-65
2023/12/14 11:55:55;;;;;;;14.85;9.95;;;6.20;99.90;;;;;;6180897;23;20017;-65
2023/12/14 11:58:42;;;;;;;14.55;9.20;;;6.20;99.90;;;;;;6181225;23;20415;-65
2023/12/14 12:01:28;;;;;;;15.30;9.45;;;6.20;99.90;;;;;;6140880;23;20062;-65
2023/12/14 12:04:14;;;;;;;12.30;9.13;;;6.30;99.90;;;;;;6179701;23;20009;-65
2023/12/14 12:07:04;;;;;;;14.15;8.95;;;6.30;99.90;;;;;;6180645;23;20092;-65
2023/12/14 12:09:50;;;;;;;13.40;9.50;;;6.30;99.90;;;;;;6177966;23;20028;-65
2023/12/14 12:12:36;;;;;;;14.57;9.18;;;6.30;99.90;;;;;;6180375;23;20025;-65
2023/12/14 12:15:22;;;;;;;14.63;9.50;;;6.30;99.90;;;;;;6179072;23;20017;-74
2023/12/14 12:18:10;;;;;;;12.98;8.60;;;6.40;99.90;;;;;;6175035;23;20475;-70
2023/12/14 12:21:00;;;;;;;11.27;8.10;;;6.30;99.90;;;;;;6176365;23;20009;-71
2023/12/14 12:23:46;;;;;;;14.23;9.93;;;6.40;99.90;;;;;;6179528;23;20188;-72
2023/12/14 12:26:32;;;;;;;14.65;9.07;;;6.40;99.90;;;;;;6180431;23;20092;-73
2023/12/14 12:29:18;;;;;;;14.98;9.82;;;6.50;99.90;;;;;;6181420;23;20348;-72
2023/12/14 12:32:04;;;;;;;13.38;9.73;;;6.50;99.90;;;;;;6179706;23;20025;-71
2023/12/14 12:34:50;;;;;;;10.95;8.45;;;6.50;99.90;;;;;;6180125;23;20020;-71
2023/12/14 12:37:35;;;;;;;13.77;9.15;;;6.50;99.90;;;;;;6179798;23;20013;-71
2023/12/14 12:40:22;;;;;;;14.43;9.98;;;6.60;99.90;;;;;;6180723;23;20031;-71
2023/12/14 12:43:08;;;;;;;14.68;10.07;;;6.60;99.90;;;;;;6180349;23;20012;-71
2023/12/14 12:45:54;;;;;;;15.15;9.68;;;6.50;99.90;;;;;;6179816;23;20005;-72
2023/12/14 12:48:40;;;;;;;12.73;8.80;;;6.40;99.90;;;;;;6180036;23;20067;-71
2023/12/14 12:51:27;;;;;;;14.73;9.90;;;6.40;99.90;;;;;;6180840;23;20825;-71
2023/12/14 12:54:13;;;;;;;14.60;9.85;;;6.40;99.90;;;;;;6180318;23;20083;-73
2023/12/14 12:56:58;;;;;;;16.30;10.35;;;6.40;99.90;;;;;;6179667;23;20337;-71
2023/12/14 12:59:45;;;;;;;17.13;10.80;;;6.40;99.90;;;;;;6178732;23;20057;-70
2023/12/14 13:02:31;;;;;;;13.57;8.70;;;6.40;99.90;;;;;;6180244;23;20072;-71
2023/12/14 13:05:17;;;;;;;13.15;9.43;;;6.40;99.90;;;;;;6179603;23;20024;-72
2023/12/14 13:08:03;;;;;;;15.27;9.82;;;6.40;99.90;;;;;;6179629;23;20099;-71
2023/12/14 13:10:51;;;;;;;14.55;9.38;;;6.30;99.90;;;;;;6180394;23;20024;-71
2023/12/14 13:13:37;;;;;;;12.93;7.90;;;6.30;99.90;;;;;;6178286;23;20021;-71
2023/12/14 13:16:23;;;;;;;13.07;8.52;;;6.20;99.90;;;;;;6179516;23;20042;-71
2023/12/14 13:19:09;;;;;;;12.48;8.23;;;6.20;99.90;;;;;;6178660;23;20013;-71
2023/12/14 13:21:57;;;;;;;11.73;8.77;;;6.20;99.90;;;;;;6180893;23;20013;-72
2023/12/14 13:24:43;;;;;;;11.80;8.02;;;6.20;99.90;;;;;;6179723;23;20092;-71
2023/12/14 13:27:29;;;;;;;11.93;8.35;;;6.20;99.90;;;;;;6179660;23;20016;-70
2023/12/14 13:30:17;;;;;;;12.85;8.65;;;6.20;99.90;;;;;;6178329;23;20017;-70
2023/12/14 13:33:03;;;;;;;15.50;9.55;;;6.20;99.90;;;;;;6178729;23;20008;-72
2023/12/14 13:35:49;;;;;;;13.13;8.13;;;6.20;99.90;;;;;;6179046;23;20009;-70
2023/12/14 13:38:36;;;;;;;11.75;8.77;;;6.20;99.90;;;;;;6179151;23;20017;-71
2023/12/14 13:41:22;;;;;;;14.57;9.05;;;6.20;99.90;;;;;;6179455;23;20009;-71
2023/12/14 13:44:08;;;;;;;12.35;8.70;;;6.20;99.90;;;;;;6179958;23;20009;-71
2023/12/14 13:46:53;;;;;;;12.85;9.27;;;6.10;99.90;;;;;;6178015;23;20480;-73
2023/12/14 13:49:39;;;;;;;14.30;9.82;;;6.10;99.90;;;;;;6178282;23;20063;-74
2023/12/14 13:52:25;;;;;;;13.45;9.30;;;6.00;99.90;;;;;;6179982;23;20088;-71
2023/12/14 13:55:11;;;;;;;13.70;9.93;;;6.00;99.90;;;;;;6180521;23;20024;-64
2023/12/14 13:57:58;;;;;;;15.60;8.98;;;6.00;99.90;;;;;;6179188;23;20087;-63
2023/12/14 14:00:44;;;;;;;14.32;10.15;;;6.00;99.90;;;;;;6179004;23;20009;-63
2023/12/14 14:03:30;;;;;;;17.70;10.80;;;6.00;99.90;;;;;;6179119;23;20044;-63
2023/12/14 14:06:16;;;;;;;15.02;10.32;;;6.00;99.90;;;;;;6179309;23;20001;-64
2023/12/14 14:09:02;;;;;;;18.10;10.77;;;6.10;99.90;;;;;;6177429;23;20017;-64
2023/12/14 14:11:50;;;;;;;15.38;10.05;;;6.00;99.90;;;;;;6178673;23;20083;-63
2023/12/14 14:14:36;;;;;;;14.35;9.43;;;6.00;99.90;;;;;;6179333;23;20035;-63
2023/12/14 14:17:21;;;;;;;14.00;9.40;;;6.00;99.90;;;;;;6181134;23;20009;-64
2023/12/14 14:20:09;;;;;;;11.95;8.25;;;6.00;99.90;;;;;;6180236;23;20465;-64
2023/12/14 14:22:57;;;;;;;14.80;9.93;;;6.00;99.90;;;;;;6180731;23;20013;-63
2023/12/14 14:25:43;;;;;;;14.52;9.13;;;6.00;99.90;;;;;;6180544;23;20009;-64